Time;durP1;ratioP1;P1;durP2;ratioP2;P2;SDS_P1;SDS_P2;PMS_P1;PMS_P2;Temp;Humidity;BMP_temperature;BMP_pressure;BME280_temperature;BME280_humidity;BME280_pressure;Samples;Min_cycle;Max_cycle;Signal;HPM_P1;HPM_P2
2021/10/22 00:01:47;;;;;;;10.25;1.05;;;6.40;99.90;;;;;;5021981;28;20490;-65
2021/10/22 00:04:12;;;;;;;10.40;1.60;;;6.40;99.90;;;;;;5022122;28;20042;-65
2021/10/22 00:06:38;;;;;;;12.80;1.23;;;6.40;99.90;;;;;;5020823;28;20039;-65
2021/10/22 00:09:04;;;;;;;9.63;1.20;;;6.40;99.90;;;;;;5010606;28;20094;-65
2021/10/22 00:11:30;;;;;;;11.52;1.20;;;6.50;99.90;;;;;;5018128;28;20069;-65
2021/10/22 00:13:57;;;;;;;8.65;1.17;;;6.50;99.90;;;;;;5020072;28;20402;-65
2021/10/22 00:16:22;;;;;;;11.50;1.50;;;6.50;99.90;;;;;;5019888;28;20049;-65
2021/10/22 00:18:48;;;;;;;8.02;1.67;;;6.60;99.90;;;;;;5026785;28;20052;-65
2021/10/22 00:21:14;;;;;;;10.52;1.63;;;6.60;99.90;;;;;;5012091;28;20053;-65
2021/10/22 00:23:40;;;;;;;9.90;1.60;;;6.60;99.90;;;;;;5020997;28;20113;-65
2021/10/22 00:26:05;;;;;;;14.38;1.75;;;6.70;99.90;;;;;;5025003;28;20054;-66
2021/10/22 00:28:31;;;;;;;9.80;1.33;;;6.80;99.90;;;;;;5027072;28;20041;-65
2021/10/22 00:30:56;;;;;;;7.38;1.30;;;6.80;99.90;;;;;;5012318;28;20057;-65
2021/10/22 00:33:23;;;;;;;15.88;1.98;;;6.90;99.90;;;;;;5019953;28;20553;-65
2021/10/22 00:35:49;;;;;;;10.82;1.38;;;6.90;99.90;;;;;;5015612;28;20069;-65
2021/10/22 00:38:14;;;;;;;9.23;1.33;;;7.00;99.90;;;;;;5018043;28;20038;-65
2021/10/22 00:40:40;;;;;;;11.48;2.28;;;7.00;99.90;;;;;;5016633;28;20041;-65
2021/10/22 00:43:06;;;;;;;13.07;1.85;;;7.00;99.90;;;;;;5017009;28;20041;-65
2021/10/22 00:45:32;;;;;;;8.15;1.30;;;7.00;99.90;;;;;;5014082;28;20041;-65
2021/10/22 00:47:58;;;;;;;15.27;1.50;;;7.00;99.90;;;;;;5022044;28;20045;-65
2021/10/22 00:50:24;;;;;;;11.27;1.40;;;7.10;99.90;;;;;;5019858;28;20030;-65
2021/10/22 00:52:49;;;;;;;9.27;1.40;;;7.00;99.90;;;;;;5025036;28;20038;-65
2021/10/22 00:55:15;;;;;;;11.32;2.17;;;7.00;99.90;;;;;;5018541;28;20076;-65
2021/10/22 00:57:43;;;;;;;10.00;1.52;;;6.90;99.90;;;;;;5013136;28;20053;-65
2021/10/22 01:00:10;;;;;;;14.40;1.60;;;6.90;99.90;;;;;;5018017;28;20378;-65
2021/10/22 01:02:36;;;;;;;13.43;1.50;;;6.90;99.90;;;;;;5016041;28;20104;-65
2021/10/22 01:05:11;;;;;;;12.50;1.73;;;6.90;99.90;;;;;;5027519;28;20120;-65
2021/10/22 01:07:41;;;;;;;11.07;1.33;;;6.90;99.90;;;;;;5015084;28;20042;-65
2021/10/22 01:10:08;;;;;;;8.35;1.13;;;6.90;99.90;;;;;;5019600;28;20370;-65
2021/10/22 01:12:35;;;;;;;8.85;1.63;;;6.90;99.90;;;;;;5024203;28;20054;-65
2021/10/22 01:15:01;;;;;;;11.55;1.42;;;6.70;99.90;;;;;;5017034;28;20087;-65
2021/10/22 01:17:47;;;;;;;8.82;1.17;;;6.70;99.90;;;;;;5016168;28;20441;-65
2021/10/22 01:20:16;;;;;;;9.52;1.52;;;6.80;99.90;;;;;;5017004;28;20141;-65
2021/10/22 01:22:44;;;;;;;11.43;1.60;;;6.60;99.90;;;;;;5014880;28;20045;-66
2021/10/22 01:25:13;;;;;;;10.43;1.20;;;6.60;99.90;;;;;;5018815;28;20050;-65
2021/10/22 01:27:39;;;;;;;14.48;1.80;;;6.60;99.90;;;;;;5013724;28;20049;-65
2021/10/22 01:30:06;;;;;;;10.38;1.75;;;6.60;99.90;;;;;;5019422;28;20030;-65
2021/10/22 01:32:32;;;;;;;8.00;1.35;;;6.60;99.90;;;;;;5012392;28;20045;-65
2021/10/22 01:34:58;;;;;;;9.13;1.10;;;6.60;99.90;;;;;;5018325;28;20180;-65
2021/10/22 01:37:23;;;;;;;14.32;1.63;;;6.50;99.90;;;;;;5012821;28;20065;-65
2021/10/22 01:39:50;;;;;;;8.95;1.58;;;6.60;99.90;;;;;;5024253;28;20041;-65
2021/10/22 01:42:16;;;;;;;13.07;1.40;;;6.60;99.90;;;;;;5014487;28;20394;-65
2021/10/22 01:44:41;;;;;;;9.57;1.35;;;6.60;99.90;;;;;;5018005;28;20048;-65
2021/10/22 01:47:07;;;;;;;18.70;2.90;;;6.60;99.90;;;;;;5024130;28;20048;-65
2021/10/22 01:49:33;;;;;;;9.00;1.23;;;6.60;99.90;;;;;;5015987;28;20081;-65
2021/10/22 01:51:59;;;;;;;10.05;1.52;;;6.60;99.90;;;;;;5018177;28;20084;-65
2021/10/22 01:54:25;;;;;;;12.93;2.15;;;6.60;99.90;;;;;;5016997;28;20126;-65
2021/10/22 01:56:50;;;;;;;7.43;1.23;;;6.60;99.90;;;;;;5023023;28;20033;-65
2021/10/22 01:59:16;;;;;;;12.90;1.73;;;6.60;99.90;;;;;;5015477;28;20069;-65
2021/10/22 02:01:42;;;;;;;11.20;1.73;;;6.60;99.90;;;;;;5017443;28;20125;-65
2021/10/22 02:04:07;;;;;;;13.60;1.60;;;6.70;99.90;;;;;;5011415;28;20056;-65
2021/10/22 02:06:33;;;;;;;10.57;1.90;;;6.70;99.90;;;;;;5015006;28;20036;-65
2021/10/22 02:08:59;;;;;;;9.90;1.35;;;6.70;99.90;;;;;;5012067;28;20104;-66
2021/10/22 02:11:25;;;;;;;9.32;1.20;;;6.70;99.90;;;;;;5022445;28;20076;-65
2021/10/22 02:13:50;;;;;;;12.45;2.33;;;6.70;99.90;;;;;;5009416;28;20045;-66
2021/10/22 02:16:16;;;;;;;8.35;1.55;;;6.70;99.90;;;;;;5026911;28;20468;-65
2021/10/22 02:18:42;;;;;;;8.93;1.40;;;6.70;99.90;;;;;;5023656;28;20044;-65
2021/10/22 02:21:08;;;;;;;8.45;1.73;;;6.60;99.90;;;;;;4997739;28;20053;-65
2021/10/22 02:23:33;;;;;;;7.97;1.40;;;6.60;99.90;;;;;;5016199;28;20508;-65
2021/10/22 02:26:00;;;;;;;15.18;2.10;;;6.70;99.90;;;;;;5017508;28;20044;-65
2021/10/22 02:28:26;;;;;;;10.77;1.75;;;6.70;99.90;;;;;;5019346;28;20052;-65
2021/10/22 02:30:54;;;;;;;8.07;1.30;;;6.70;99.90;;;;;;5011878;28;20033;-66
2021/10/22 02:33:20;;;;;;;11.20;1.50;;;6.80;99.90;;;;;;5024315;28;20057;-66
2021/10/22 02:35:45;;;;;;;8.93;1.38;;;6.80;99.90;;;;;;5015920;28;20042;-66
2021/10/22 02:38:11;;;;;;;8.48;1.50;;;6.90;99.90;;;;;;5022339;28;20120;-66
2021/10/22 02:40:37;;;;;;;12.63;1.80;;;6.90;99.90;;;;;;5016485;28;20040;-66
2021/10/22 02:43:02;;;;;;;13.02;1.58;;;6.90;99.90;;;;;;5011893;28;20083;-66
2021/10/22 02:45:28;;;;;;;10.38;1.50;;;6.90;99.90;;;;;;5011050;28;20544;-66
2021/10/22 02:47:54;;;;;;;9.20;1.25;;;6.90;99.90;;;;;;5020966;28;20033;-66
2021/10/22 02:50:21;;;;;;;6.53;1.50;;;6.90;99.90;;;;;;5018193;28;20379;-66
2021/10/22 02:52:48;;;;;;;12.60;2.35;;;6.90;99.90;;;;;;5013479;28;20120;-66
2021/10/22 02:55:14;;;;;;;11.02;2.17;;;6.80;99.90;;;;;;5016279;28;20540;-66
2021/10/22 02:57:40;;;;;;;10.00;1.55;;;6.70;99.90;;;;;;5021854;28;20504;-66
2021/10/22 03:00:07;;;;;;;12.85;1.63;;;6.70;99.90;;;;;;5023599;28;20157;-66
2021/10/22 03:02:33;;;;;;;7.72;1.17;;;6.60;99.90;;;;;;5017791;28;20044;-66
2021/10/22 03:04:58;;;;;;;12.85;1.80;;;6.60;99.90;;;;;;5019718;28;20029;-66
2021/10/22 03:07:24;;;;;;;5.75;1.23;;;6.60;99.90;;;;;;5013142;28;20478;-66
2021/10/22 03:09:50;;;;;;;10.15;1.77;;;6.60;99.90;;;;;;5015475;28;20102;-66
2021/10/22 03:12:16;;;;;;;11.15;1.60;;;6.60;99.90;;;;;;5007904;28;20474;-66
2021/10/22 03:14:41;;;;;;;8.48;1.35;;;6.60;99.90;;;;;;5020039;28;20406;-66
2021/10/22 03:17:07;;;;;;;7.38;1.40;;;6.60;99.90;;;;;;5011290;28;20389;-66
2021/10/22 03:19:33;;;;;;;5.97;1.23;;;6.70;99.90;;;;;;5021406;28;20134;-66
2021/10/22 03:21:59;;;;;;;11.40;1.88;;;6.70;99.90;;;;;;5014345;28;20034;-66
2021/10/22 03:24:25;;;;;;;11.70;1.65;;;6.80;99.90;;;;;;5023520;28;20068;-66
2021/10/22 03:26:50;;;;;;;7.47;1.50;;;6.80;99.90;;;;;;5007181;28;20034;-66
2021/10/22 03:29:16;;;;;;;10.60;1.80;;;6.90;99.90;;;;;;5025112;28;20511;-66
2021/10/22 03:31:42;;;;;;;11.25;1.80;;;6.90;99.90;;;;;;5013855;28;20255;-66
2021/10/22 03:34:08;;;;;;;11.75;1.77;;;6.90;99.90;;;;;;5018290;28;20584;-66
2021/10/22 03:36:35;;;;;;;10.55;1.50;;;6.90;99.90;;;;;;5013800;28;20414;-66
2021/10/22 03:39:02;;;;;;;12.48;1.95;;;7.00;99.90;;;;;;5009184;28;20049;-65
2021/10/22 03:41:28;;;;;;;11.73;1.88;;;7.00;99.90;;;;;;5015526;28;20088;-65
2021/10/22 03:43:53;;;;;;;10.40;1.65;;;7.10;99.90;;;;;;5008220;28;20060;-65
2021/10/22 03:46:19;;;;;;;12.45;1.50;;;7.10;99.90;;;;;;5025383;28;20052;-65
2021/10/22 03:48:45;;;;;;;12.23;1.67;;;7.10;99.90;;;;;;5010996;28;20045;-65
2021/10/22 03:51:12;;;;;;;12.25;2.20;;;7.10;99.90;;;;;;5017502;28;20432;-64
2021/10/22 03:53:38;;;;;;;12.00;1.77;;;7.20;99.90;;;;;;5010735;28;20136;-65
2021/10/22 03:56:04;;;;;;;10.77;1.63;;;7.20;99.90;;;;;;5023500;28;20055;-65
2021/10/22 03:58:30;;;;;;;16.17;1.80;;;7.20;99.90;;;;;;5017473;28;20054;-65
2021/10/22 04:00:56;;;;;;;15.32;1.92;;;7.10;99.90;;;;;;5015363;28;20049;-65
2021/10/22 04:03:21;;;;;;;11.15;1.38;;;7.10;99.90;;;;;;5012027;28;20128;-65
2021/10/22 04:05:47;;;;;;;10.73;1.52;;;7.00;99.90;;;;;;5022604;28;20037;-65
2021/10/22 04:08:13;;;;;;;11.32;1.75;;;7.00;99.90;;;;;;5014677;28;20095;-65
2021/10/22 04:10:41;;;;;;;18.95;1.92;;;7.00;99.90;;;;;;5019785;28;20074;-65
2021/10/22 04:13:10;;;;;;;11.77;1.95;;;6.90;99.90;;;;;;5017036;28;20125;-65
2021/10/22 04:15:35;;;;;;;11.90;2.00;;;6.90;99.90;;;;;;5022044;28;20075;-65
2021/10/22 04:18:01;;;;;;;15.77;1.80;;;6.80;99.90;;;;;;5024035;28;20103;-65
2021/10/22 04:20:26;;;;;;;9.68;1.42;;;6.80;99.90;;;;;;5015153;28;20128;-65
2021/10/22 04:22:52;;;;;;;16.42;2.08;;;6.90;99.90;;;;;;5019669;28;20135;-65
2021/10/22 04:25:18;;;;;;;10.20;1.60;;;6.90;99.90;;;;;;5017947;28;20151;-65
2021/10/22 04:27:43;;;;;;;16.73;1.80;;;6.90;99.90;;;;;;5026058;28;20052;-64
2021/10/22 04:30:10;;;;;;;10.93;1.77;;;7.00;99.90;;;;;;5015113;28;20040;-65
2021/10/22 04:32:35;;;;;;;20.80;8.75;;;7.00;99.90;;;;;;5026564;28;20544;-65
2021/10/22 04:35:01;;;;;;;9.25;1.98;;;7.00;99.90;;;;;;5012954;28;20050;-65
2021/10/22 04:37:33;;;;;;;8.40;1.42;;;7.00;99.90;;;;;;5018603;28;20378;-65
2021/10/22 04:42:47;;;;;;;12.77;1.70;;;7.00;99.90;;;;;;5018990;28;20053;-65
2021/10/22 04:45:14;;;;;;;16.58;1.60;;;6.90;99.90;;;;;;5012632;28;20045;-65
2021/10/22 04:47:40;;;;;;;10.98;1.65;;;6.90;99.90;;;;;;5015426;28;20103;-65
2021/10/22 04:50:09;;;;;;;13.40;2.00;;;6.90;99.90;;;;;;5015432;28;20069;-65
2021/10/22 04:52:35;;;;;;;14.48;1.83;;;6.90;99.90;;;;;;5017966;28;20048;-65
2021/10/22 04:55:01;;;;;;;12.82;1.88;;;6.90;99.90;;;;;;5012297;28;20034;-65
2021/10/22 04:57:27;;;;;;;10.77;1.88;;;6.90;99.90;;;;;;5025465;28;20100;-65
2021/10/22 04:59:52;;;;;;;12.38;2.13;;;6.80;99.90;;;;;;5025386;28;20089;-65
2021/10/22 05:02:18;;;;;;;15.15;1.83;;;6.80;99.90;;;;;;5012077;28;20036;-65
2021/10/22 05:04:44;;;;;;;15.50;2.13;;;6.70;99.90;;;;;;5019873;28;20038;-65
2021/10/22 05:07:09;;;;;;;10.60;1.77;;;6.70;99.90;;;;;;5021750;28;20088;-65
2021/10/22 05:09:35;;;;;;;11.63;1.88;;;6.70;99.90;;;;;;5021326;28;20064;-65
2021/10/22 05:12:05;;;;;;;10.90;1.50;;;6.70;99.90;;;;;;5018295;28;20065;-65
2021/10/22 05:14:35;;;;;;;11.43;1.42;;;6.70;99.90;;;;;;5020881;28;20456;-65
2021/10/22 05:17:03;;;;;;;10.00;1.60;;;6.60;99.90;;;;;;5016122;28;20119;-65
2021/10/22 05:19:29;;;;;;;12.25;1.38;;;6.60;99.90;;;;;;5026413;28;20057;-65
2021/10/22 05:21:55;;;;;;;15.70;1.52;;;6.60;99.90;;;;;;5017895;28;20560;-65
2021/10/22 05:24:21;;;;;;;9.15;2.00;;;6.70;99.90;;;;;;5015326;28;20197;-65
2021/10/22 05:26:47;;;;;;;15.50;1.65;;;6.80;99.90;;;;;;5014744;28;20038;-65
2021/10/22 05:29:13;;;;;;;18.88;2.35;;;6.80;99.90;;;;;;5018930;28;20104;-65
2021/10/22 05:31:39;;;;;;;19.33;1.80;;;6.80;99.90;;;;;;5013173;28;20500;-65
2021/10/22 05:34:05;;;;;;;16.23;1.65;;;6.90;99.90;;;;;;5015861;28;20038;-65
2021/10/22 05:36:30;;;;;;;12.35;1.70;;;6.90;99.90;;;;;;5014408;28;20042;-65
2021/10/22 05:38:56;;;;;;;12.02;1.20;;;7.00;99.90;;;;;;5025325;28;20497;-65
2021/10/22 05:41:22;;;;;;;15.52;1.48;;;7.00;99.90;;;;;;5015303;28;20120;-65
2021/10/22 05:43:49;;;;;;;11.23;1.63;;;7.00;99.90;;;;;;5013930;28;20076;-65
2021/10/22 05:46:18;;;;;;;15.05;1.73;;;7.10;99.90;;;;;;5017242;28;20057;-65
2021/10/22 05:48:45;;;;;;;9.77;1.80;;;7.20;99.90;;;;;;5017627;28;20052;-65
2021/10/22 05:51:11;;;;;;;10.65;1.98;;;7.30;99.90;;;;;;5024106;28;20103;-64
2021/10/22 05:53:37;;;;;;;13.43;1.88;;;7.40;99.90;;;;;;5012108;28;20096;-64
2021/10/22 05:56:03;;;;;;;11.52;1.98;;;7.50;99.90;;;;;;5020433;28;20056;-64
2021/10/22 05:58:29;;;;;;;11.15;1.95;;;7.70;99.90;;;;;;5015041;28;20133;-64
2021/10/22 06:00:55;;;;;;;15.30;1.90;;;7.70;99.90;;;;;;5016332;28;20160;-65
2021/10/22 06:03:21;;;;;;;13.27;2.33;;;7.80;99.90;;;;;;5015307;28;20042;-65
2021/10/22 06:05:51;;;;;;;17.38;2.25;;;7.80;99.90;;;;;;5018864;28;20041;-65
2021/10/22 06:08:18;;;;;;;15.13;2.13;;;7.80;99.90;;;;;;5017013;28;20038;-65
2021/10/22 06:10:45;;;;;;;13.05;1.90;;;7.90;99.90;;;;;;5015797;28;20056;-65
2021/10/22 06:13:11;;;;;;;13.13;2.00;;;8.00;99.90;;;;;;5014692;28;20053;-65
2021/10/22 06:15:37;;;;;;;13.07;1.98;;;8.00;99.90;;;;;;5020433;28;20025;-65
2021/10/22 06:18:03;;;;;;;12.10;1.52;;;8.00;99.90;;;;;;5010603;28;20510;-65
2021/10/22 06:20:42;;;;;;;13.05;1.80;;;8.00;99.90;;;;;;5017222;28;20129;-65
2021/10/22 06:25:42;;;;;;;12.15;1.88;;;8.00;99.90;;;;;;5012700;28;20618;-65
2021/10/22 06:28:08;;;;;;;9.27;1.65;;;8.00;99.90;;;;;;5017917;28;20038;-65
2021/10/22 06:30:34;;;;;;;11.77;1.55;;;8.00;99.90;;;;;;5009503;28;20041;-65
2021/10/22 06:33:00;;;;;;;13.15;1.83;;;8.00;99.90;;;;;;5020767;28;20490;-65
2021/10/22 06:35:26;;;;;;;9.57;1.23;;;8.00;99.90;;;;;;5015988;28;20101;-65
2021/10/22 06:37:54;;;;;;;15.68;2.00;;;7.90;99.90;;;;;;5016264;28;20608;-65
2021/10/22 06:40:21;;;;;;;11.38;1.95;;;7.90;99.90;;;;;;5016791;28;20089;-65
2021/10/22 06:42:47;;;;;;;12.15;2.08;;;7.90;99.90;;;;;;5020484;28;20041;-65
2021/10/22 06:45:13;;;;;;;13.40;2.03;;;7.90;99.90;;;;;;5007693;28;20457;-64
2021/10/22 06:47:39;;;;;;;14.70;1.70;;;8.00;99.90;;;;;;5022871;28;20037;-64
2021/10/22 06:50:05;;;;;;;13.73;1.70;;;8.00;99.90;;;;;;5016007;28;20125;-64
2021/10/22 06:52:31;;;;;;;10.73;1.90;;;8.10;99.90;;;;;;5017848;28;20037;-65
2021/10/22 06:54:57;;;;;;;15.00;1.88;;;8.10;99.90;;;;;;5018765;28;20390;-65
2021/10/22 06:57:24;;;;;;;18.92;2.35;;;8.20;99.90;;;;;;5017929;28;20135;-65
2021/10/22 06:59:50;;;;;;;17.30;2.08;;;8.20;99.90;;;;;;5015404;28;20050;-65
2021/10/22 07:02:16;;;;;;;17.30;2.17;;;8.30;99.90;;;;;;5019941;28;20048;-64
2021/10/22 07:04:49;;;;;;;15.77;1.88;;;8.20;99.90;;;;;;5023677;28;20148;-64
2021/10/22 07:07:16;;;;;;;10.40;1.77;;;8.30;99.90;;;;;;5019195;28;20140;-64
2021/10/22 07:09:45;;;;;;;17.52;1.88;;;8.30;99.90;;;;;;5021080;28;20061;-65
2021/10/22 07:12:11;;;;;;;17.20;2.20;;;8.30;99.90;;;;;;5007515;28;20569;-64
2021/10/22 07:14:38;;;;;;;16.08;1.95;;;8.30;99.90;;;;;;5015214;28;20100;-64
2021/10/22 07:17:05;;;;;;;15.80;2.58;;;8.30;99.90;;;;;;5012329;28;20133;-65
2021/10/22 07:19:35;;;;;;;17.70;2.22;;;8.30;99.90;;;;;;5018867;28;20033;-64
2021/10/22 07:22:05;;;;;;;14.23;2.05;;;8.40;99.90;;;;;;5005079;28;20034;-64
2021/10/22 07:24:32;;;;;;;16.83;2.10;;;8.40;99.90;;;;;;5019895;28;20065;-65
2021/10/22 07:27:00;;;;;;;17.52;2.42;;;8.40;99.90;;;;;;5011141;28;20367;-65
2021/10/22 07:29:28;;;;;;;14.60;2.08;;;8.40;99.90;;;;;;5013847;28;20045;-65
2021/10/22 07:31:54;;;;;;;17.00;2.50;;;8.50;99.90;;;;;;5011783;28;20143;-65
2021/10/22 07:34:21;;;;;;;20.13;2.20;;;8.40;99.90;;;;;;5018398;28;20406;-65
2021/10/22 07:36:49;;;;;;;17.48;2.47;;;8.50;99.90;;;;;;5012109;28;20172;-66
2021/10/22 07:39:16;;;;;;;19.55;2.30;;;8.40;99.90;;;;;;5016519;28;20057;-66
2021/10/22 07:41:42;;;;;;;20.00;2.10;;;8.50;99.90;;;;;;5007734;28;20368;-66
2021/10/22 07:44:08;;;;;;;14.98;2.13;;;8.50;99.90;;;;;;5023571;28;20124;-65
2021/10/22 07:46:33;;;;;;;12.43;2.28;;;8.50;99.90;;;;;;5013168;28;20045;-65
2021/10/22 07:49:00;;;;;;;22.48;2.47;;;8.60;99.90;;;;;;5021640;28;20043;-65
2021/10/22 07:51:25;;;;;;;18.80;2.25;;;8.60;99.90;;;;;;5021627;28;20053;-65
2021/10/22 07:53:51;;;;;;;15.05;2.22;;;8.70;99.90;;;;;;5015750;28;20125;-65
2021/10/22 07:56:17;;;;;;;15.45;2.10;;;8.70;99.90;;;;;;5019532;28;20076;-65
2021/10/22 07:58:44;;;;;;;14.65;2.33;;;8.80;99.90;;;;;;4977612;28;1099423;-65
2021/10/22 08:01:10;;;;;;;15.52;2.10;;;8.80;99.90;;;;;;5027060;28;20041;-65
2021/10/22 08:03:36;;;;;;;18.95;2.30;;;8.80;99.90;;;;;;5017890;28;20093;-65
2021/10/22 08:06:02;;;;;;;16.80;2.60;;;8.80;99.90;;;;;;5021534;28;20052;-65
2021/10/22 08:08:28;;;;;;;15.80;3.03;;;8.80;99.90;;;;;;5013426;28;20128;-66
2021/10/22 08:10:55;;;;;;;20.55;1.95;;;8.80;99.90;;;;;;5017353;28;20077;-65
2021/10/22 08:13:21;;;;;;;13.50;2.42;;;8.80;99.90;;;;;;5014812;28;20037;-65
2021/10/22 08:15:47;;;;;;;18.70;1.95;;;8.80;99.90;;;;;;5025146;28;20046;-65
2021/10/22 08:18:14;;;;;;;9.98;2.35;;;8.90;99.90;;;;;;5018866;28;20049;-65
2021/10/22 08:21:04;;;;;;;15.07;2.00;;;8.90;99.90;;;;;;5026930;28;20072;-65
2021/10/22 08:23:30;;;;;;;20.98;3.08;;;8.90;99.90;;;;;;5015539;28;20053;-65
2021/10/22 08:25:56;;;;;;;18.48;2.75;;;9.00;99.90;;;;;;5016790;28;20398;-65
2021/10/22 08:28:21;;;;;;;17.20;2.35;;;9.00;99.90;;;;;;5011869;28;20056;-65
2021/10/22 08:30:55;;;;;;;17.00;2.80;;;9.00;99.90;;;;;;5018767;28;20331;-64
2021/10/22 08:33:22;;;;;;;15.88;2.55;;;9.00;99.90;;;;;;5015415;28;20652;-65
2021/10/22 08:35:48;;;;;;;23.25;3.20;;;9.00;99.90;;;;;;5015971;28;20132;-65
2021/10/22 08:38:13;;;;;;;15.52;2.00;;;9.00;99.90;;;;;;5018179;28;20446;-65
2021/10/22 08:40:39;;;;;;;17.88;2.75;;;9.00;99.90;;;;;;5016510;28;20410;-65
2021/10/22 08:43:05;;;;;;;14.25;2.40;;;9.00;99.90;;;;;;5016385;28;20090;-64
2021/10/22 08:45:32;;;;;;;14.68;1.90;;;9.00;99.90;;;;;;5017842;28;20139;-64
2021/10/22 08:47:59;;;;;;;13.23;2.33;;;9.00;99.90;;;;;;5024001;28;20060;-64
2021/10/22 08:50:25;;;;;;;19.55;2.38;;;9.10;99.90;;;;;;5019619;28;20040;-64
2021/10/22 08:52:52;;;;;;;13.05;2.30;;;9.30;99.90;;;;;;5017338;28;20343;-64
2021/10/22 08:55:19;;;;;;;17.75;2.67;;;9.40;99.90;;;;;;5014201;28;20465;-64
2021/10/22 08:57:47;;;;;;;16.92;2.95;;;9.50;99.90;;;;;;5018804;28;20034;-64
2021/10/22 09:00:15;;;;;;;15.18;3.03;;;9.40;99.90;;;;;;5013257;28;20049;-64
2021/10/22 09:02:44;;;;;;;13.90;2.38;;;9.40;99.90;;;;;;5025146;28;20041;-64
2021/10/22 09:05:12;;;;;;;10.60;1.95;;;9.40;99.90;;;;;;5014241;28;20481;-64
2021/10/22 09:07:50;;;;;;;15.02;2.05;;;9.40;99.90;;;;;;5024840;28;20041;-64
2021/10/22 09:10:28;;;;;;;22.85;2.85;;;9.40;99.90;;;;;;5019882;28;20041;-64
2021/10/22 09:12:57;;;;;;;24.13;3.03;;;9.40;99.90;;;;;;5024492;28;20034;-64
2021/10/22 09:15:27;;;;;;;19.10;3.60;;;9.30;99.90;;;;;;5011325;28;20025;-64
2021/10/22 09:17:56;;;;;;;18.00;2.63;;;9.40;99.90;;;;;;5024126;28;20042;-64
2021/10/22 09:20:23;;;;;;;21.40;3.30;;;9.30;99.90;;;;;;5020636;28;20042;-64
2021/10/22 09:22:54;;;;;;;17.95;2.40;;;9.30;99.90;;;;;;5025029;28;20051;-66
2021/10/22 09:25:23;;;;;;;22.75;2.50;;;9.30;99.90;;;;;;5011715;28;20429;-66
2021/10/22 09:27:54;;;;;;;13.63;1.83;;;9.20;99.90;;;;;;5021522;28;20046;-66
2021/10/22 09:30:23;;;;;;;8.32;1.10;;;9.20;99.90;;;;;;5022243;28;20044;-66
2021/10/22 09:32:53;;;;;;;8.73;0.88;;;9.10;99.90;;;;;;5010848;28;20042;-65
2021/10/22 09:35:35;;;;;;;8.70;0.95;;;9.00;99.90;;;;;;5017300;28;20116;-65
2021/10/22 09:38:30;;;;;;;9.05;1.52;;;9.00;99.90;;;;;;5012977;28;20124;-65
2021/10/22 09:41:04;;;;;;;14.48;1.85;;;9.10;99.90;;;;;;5014628;28;20041;-65
2021/10/22 09:43:42;;;;;;;9.30;1.52;;;9.30;99.90;;;;;;5024204;28;20114;-65
2021/10/22 09:46:21;;;;;;;20.48;3.53;;;9.50;99.90;;;;;;5010502;28;20037;-65
2021/10/22 09:48:57;;;;;;;21.27;5.72;;;9.50;99.90;;;;;;5017149;28;20056;-65
2021/10/22 09:51:29;;;;;;;19.40;2.70;;;9.60;99.90;;;;;;5013439;28;20042;-65
2021/10/22 09:54:00;;;;;;;17.20;2.70;;;9.60;99.90;;;;;;5025290;28;20532;-65
2021/10/22 09:56:28;;;;;;;24.38;2.83;;;9.60;99.90;;;;;;5021357;28;20037;-66
2021/10/22 09:59:03;;;;;;;17.92;2.25;;;9.60;99.90;;;;;;5016075;28;20062;-66
2021/10/22 10:01:43;;;;;;;12.27;1.83;;;9.60;99.90;;;;;;5022996;28;20049;-66
2021/10/22 10:04:10;;;;;;;24.58;2.88;;;9.60;99.90;;;;;;5025372;28;20081;-66
2021/10/22 10:06:45;;;;;;;14.52;2.20;;;9.60;99.90;;;;;;5023105;28;20038;-65
2021/10/22 10:09:12;;;;;;;20.17;2.70;;;9.50;99.90;;;;;;5014037;28;20037;-65
2021/10/22 10:11:42;;;;;;;19.42;2.22;;;9.50;99.90;;;;;;5018553;28;20085;-65
2021/10/22 10:14:11;;;;;;;14.13;2.08;;;9.50;99.90;;;;;;5016161;28;20176;-65
2021/10/22 10:16:38;;;;;;;11.27;1.83;;;9.50;99.90;;;;;;5023300;28;20121;-65
2021/10/22 10:19:33;;;;;;;18.90;2.22;;;9.50;99.90;;;;;;5012112;28;20117;-65
2021/10/22 10:22:06;;;;;;;14.88;2.13;;;9.60;99.90;;;;;;5020176;28;20065;-65
2021/10/22 10:24:34;;;;;;;15.68;2.13;;;9.60;99.90;;;;;;5015408;28;20037;-65
2021/10/22 10:27:15;;;;;;;13.60;1.77;;;9.70;99.90;;;;;;5014707;28;20069;-65
2021/10/22 10:29:51;;;;;;;13.77;2.35;;;9.80;99.90;;;;;;5016626;28;20068;-65
2021/10/22 10:32:23;;;;;;;11.45;2.15;;;9.90;99.90;;;;;;5015302;28;20048;-65
2021/10/22 10:34:52;;;;;;;17.45;2.80;;;10.00;99.90;;;;;;5013798;28;20046;-65
2021/10/22 10:37:38;;;;;;;19.15;2.47;;;10.30;99.90;;;;;;5018828;28;20042;-65
2021/10/22 10:40:14;;;;;;;16.88;2.88;;;10.70;99.90;;;;;;5011964;28;20505;-66
2021/10/22 10:42:55;;;;;;;11.00;1.40;;;11.10;99.90;;;;;;5012768;28;20549;-66
2021/10/22 10:45:24;;;;;;;6.65;0.90;;;10.90;99.90;;;;;;5019725;28;20479;-66
2021/10/22 10:48:07;;;;;;;9.77;1.00;;;10.40;99.90;;;;;;5019387;28;20077;-66
2021/10/22 10:50:56;;;;;;;3.92;0.52;;;10.00;99.90;;;;;;5008707;28;20040;-65
2021/10/22 10:53:36;;;;;;;7.10;0.98;;;9.70;99.90;;;;;;5020362;28;20052;-65
2021/10/22 10:56:07;;;;;;;8.50;1.08;;;9.60;99.90;;;;;;5009531;28;20105;-65
2021/10/22 10:58:45;;;;;;;7.00;1.02;;;9.50;99.90;;;;;;5015623;28;20062;-65
2021/10/22 11:01:27;;;;;;;7.28;1.23;;;9.50;99.90;;;;;;5014838;28;20457;-66
2021/10/22 11:03:54;;;;;;;11.68;1.00;;;9.40;99.90;;;;;;5023460;28;20049;-65
2021/10/22 11:06:47;;;;;;;9.30;1.48;;;9.50;99.90;;;;;;5009613;28;20053;-65
2021/10/22 11:09:36;;;;;;;8.60;1.20;;;9.50;99.90;;;;;;5017171;28;20146;-65
2021/10/22 11:12:03;;;;;;;9.35;1.25;;;9.70;99.90;;;;;;5022464;28;20126;-65
2021/10/22 11:14:50;;;;;;;8.57;1.42;;;9.70;99.90;;;;;;5018541;28;20408;-65
2021/10/22 11:17:28;;;;;;;5.45;0.80;;;9.70;99.90;;;;;;5019416;28;20037;-65
2021/10/22 11:19:57;;;;;;;11.65;1.40;;;9.70;99.90;;;;;;5018281;28;20061;-66
2021/10/22 11:22:26;;;;;;;10.52;1.20;;;9.70;99.90;;;;;;5022715;28;20455;-65
2021/10/22 11:24:52;;;;;;;11.27;1.20;;;9.70;99.90;;;;;;5019466;28;20040;-66
2021/10/22 11:27:21;;;;;;;8.90;1.00;;;9.70;99.90;;;;;;5026054;28;20034;-65
2021/10/22 11:29:49;;;;;;;9.15;1.63;;;9.70;99.90;;;;;;5027936;28;20038;-65
2021/10/22 11:32:23;;;;;;;9.65;1.10;;;9.70;99.90;;;;;;5019690;28;20052;-65
2021/10/22 11:34:59;;;;;;;10.30;1.33;;;9.70;99.90;;;;;;5024896;28;20113;-65
2021/10/22 11:37:36;;;;;;;9.02;1.40;;;9.70;99.90;;;;;;5021358;28;20273;-65
2021/10/22 11:40:07;;;;;;;14.05;1.33;;;9.70;99.90;;;;;;5017297;28;20556;-65
2021/10/22 11:42:38;;;;;;;10.10;1.17;;;9.80;99.90;;;;;;5013550;28;20053;-65
2021/10/22 11:45:14;;;;;;;16.00;1.50;;;10.10;99.90;;;;;;5012992;28;20136;-65
2021/10/22 11:47:44;;;;;;;11.60;1.70;;;10.40;99.90;;;;;;5020625;28;20033;-65
2021/10/22 11:50:21;;;;;;;12.77;1.85;;;10.50;99.90;;;;;;5017496;28;20065;-65
2021/10/22 11:52:48;;;;;;;8.20;1.23;;;10.60;99.90;;;;;;5020735;28;20088;-65
2021/10/22 11:55:22;;;;;;;10.13;1.38;;;10.60;99.90;;;;;;5024204;28;20037;-65
2021/10/22 11:57:49;;;;;;;9.43;1.45;;;10.50;99.90;;;;;;5019790;28;20053;-64
2021/10/22 12:00:16;;;;;;;10.18;1.42;;;10.50;99.90;;;;;;5024533;28;20045;-64
2021/10/22 12:02:42;;;;;;;7.72;0.80;;;10.40;99.90;;;;;;5016027;28;20041;-64
2021/10/22 12:05:10;;;;;;;6.35;1.00;;;10.30;99.90;;;;;;5020132;28;20567;-65
2021/10/22 12:07:44;;;;;;;6.00;0.68;;;10.00;99.90;;;;;;5020774;28;20037;-64
2021/10/22 12:10:15;;;;;;;6.17;0.93;;;9.80;99.90;;;;;;5030664;28;20077;-64
2021/10/22 12:12:47;;;;;;;7.00;0.75;;;9.70;99.90;;;;;;5019234;28;20046;-64
2021/10/22 12:15:33;;;;;;;5.75;1.10;;;9.70;99.90;;;;;;5025931;28;20116;-64
2021/10/22 12:18:02;;;;;;;7.15;1.38;;;9.60;99.90;;;;;;5017831;28;20053;-64
2021/10/22 12:20:29;;;;;;;9.93;0.80;;;9.60;99.90;;;;;;5017689;28;20502;-64
2021/10/22 12:22:58;;;;;;;8.13;0.85;;;9.70;99.90;;;;;;5018155;28;20038;-65
2021/10/22 12:25:26;;;;;;;4.55;0.88;;;9.80;99.90;;;;;;5019951;28;20042;-64
2021/10/22 12:27:57;;;;;;;6.78;0.93;;;9.90;99.90;;;;;;5011553;28;20045;-64
2021/10/22 12:30:25;;;;;;;7.57;0.85;;;9.90;99.90;;;;;;5017719;28;20042;-64
2021/10/22 12:32:54;;;;;;;6.50;0.73;;;9.90;99.90;;;;;;5021041;28;20034;-64
2021/10/22 12:35:31;;;;;;;7.72;0.63;;;9.90;99.90;;;;;;5021161;28;20069;-64
2021/10/22 12:38:05;;;;;;;3.65;0.40;;;9.90;99.90;;;;;;5020444;28;20038;-64
2021/10/22 12:40:31;;;;;;;;;;;10.00;99.90;;;;;;5027028;28;20145;-64
2021/10/22 12:43:29;;;;;;;6.70;0.73;;;9.90;99.90;;;;;;5019148;28;20012;-65
2021/10/22 12:46:05;;;;;;;8.75;0.85;;;9.90;99.90;;;;;;5038175;28;20108;-64
2021/10/22 12:48:38;;;;;;;3.38;0.68;;;10.00;99.90;;;;;;5016528;28;20033;-64
2021/10/22 12:51:20;;;;;;;6.03;0.70;;;10.10;99.90;;;;;;5018483;28;20042;-65
2021/10/22 12:53:48;;;;;;;8.40;1.00;;;10.20;99.90;;;;;;5011114;28;20052;-64
2021/10/22 12:56:26;;;;;;;11.27;1.15;;;10.30;99.90;;;;;;5021392;28;20571;-65
2021/10/22 12:59:03;;;;;;;10.88;1.10;;;10.40;99.90;;;;;;5018771;28;20104;-64
2021/10/22 13:01:34;;;;;;;11.00;1.33;;;10.50;99.90;;;;;;5023222;28;20632;-64